Terminal Aerodrome Forecast
Issued by NWS Blacksburg, VA

Current Version | Previous Version | Graphics & Text | Print | Product List | Glossary On
Versions: 1 2 3 4 5 6 7 8 9 10 11 12 13 14
000
FTUS41 KRNK 220958 AAB
TAFBLF
TAF AMD
KBLF 220958Z 2210/2306 33008G18KT P6SM SCT015 BKN035
     FM221200 32010G20KT P6SM BKN040
     FM221400 33013G25KT P6SM SCT040
     FM230200 03004KT P6SM FEW250=

USA.gov is the U.S. government's official web portal to all federal, state and local government web resources and services.